Time;durP1;ratioP1;P1;durP2;ratioP2;P2;SDS_P1;SDS_P2;PMS_P1;PMS_P2;Temp;Humidity;BMP_temperature;BMP_pressure;BME280_temperature;BME280_humidity;BME280_pressure;Samples;Min_cycle;Max_cycle;Signal;HPM_P1;HPM_P2
2023/01/15 00:00:27;;;;;;;9.70;2.27;;;;;;;5.36;100.00;99768.91;5242277;28;20029;-73
2023/01/15 00:02:59;;;;;;;10.30;2.57;;;;;;;5.34;100.00;99756.88;5243026;28;20104;-74
2023/01/15 00:05:30;;;;;;;11.30;2.53;;;;;;;5.31;100.00;99755.16;5243088;28;20040;-73
2023/01/15 00:08:02;;;;;;;9.53;3.17;;;;;;;5.33;100.00;99749.97;5225451;28;20095;-74
2023/01/15 00:10:34;;;;;;;7.60;2.23;;;;;;;5.29;100.00;99757.75;5241900;28;20041;-73
2023/01/15 00:13:05;;;;;;;8.13;2.85;;;;;;;5.37;100.00;99752.53;5243100;28;20473;-73
2023/01/15 00:15:37;;;;;;;12.13;3.30;;;;;;;5.37;100.00;99744.75;5241979;28;20121;-75
2023/01/15 00:18:09;;;;;;;14.33;4.00;;;;;;;5.40;100.00;99754.22;5242677;28;20029;-75
2023/01/15 00:20:40;;;;;;;13.13;2.90;;;;;;;5.43;100.00;99752.47;5243934;28;20064;-74
2023/01/15 00:27:37;;;;;;;10.70;2.80;;;;;;;5.50;100.00;99758.44;5243333;28;20033;-75
2023/01/15 00:28:52;;;;;;;7.95;2.90;;;;;;;5.46;100.00;99747.28;5243252;28;20463;-74
2023/01/15 00:31:24;;;;;;;18.37;3.20;;;;;;;5.48;100.00;99735.19;5242903;28;20116;-74
2023/01/15 00:33:56;;;;;;;7.90;2.77;;;;;;;5.50;100.00;99742.09;5242719;28;20029;-74
2023/01/15 00:36:27;;;;;;;11.50;2.83;;;;;;;5.51;100.00;99738.66;5241470;28;20025;-75
2023/01/15 00:39:00;;;;;;;14.20;4.30;;;;;;;5.46;100.00;99736.94;5241645;28;20088;-74
2023/01/15 00:41:31;;;;;;;;;;;;;;;5.41;100.00;99743.88;5243098;28;20035;-74
2023/01/15 00:44:03;;;;;;;11.82;3.38;;;;;;;5.42;100.00;99755.91;5225643;28;19955;-74
2023/01/15 00:46:34;;;;;;;12.57;2.63;;;;;;;5.41;100.00;99758.50;5241344;28;20453;-74
2023/01/15 00:49:06;;;;;;;14.50;3.67;;;;;;;5.36;100.00;99761.16;5224853;28;20053;-74
2023/01/15 00:51:38;;;;;;;11.07;2.27;;;;;;;5.32;100.00;99764.63;5241507;28;20032;-74
2023/01/15 00:54:09;;;;;;;11.47;2.80;;;;;;;5.32;100.00;99763.78;5242367;28;20343;-74
2023/01/15 00:56:41;;;;;;;9.70;3.30;;;;;;;5.26;100.00;99769.84;5242677;28;20033;-74
2023/01/15 00:59:12;;;;;;;19.67;4.33;;;;;;;5.24;100.00;99769.84;5242342;28;20021;-72
2023/01/15 01:01:43;;;;;;;6.03;2.07;;;;;;;5.29;100.00;99773.25;5240738;28;20041;-71
2023/01/15 01:04:15;;;;;;;10.40;3.20;;;;;;;5.22;100.00;99768.16;5241939;28;20373;-74
2023/01/15 01:06:46;;;;;;;11.70;3.33;;;;;;;5.23;100.00;99775.03;5240642;28;20033;-72
2023/01/15 01:09:18;;;;;;;11.90;2.40;;;;;;;5.25;100.00;99771.56;5241604;28;20104;-74
2023/01/15 01:11:49;;;;;;;9.03;2.37;;;;;;;5.23;100.00;99773.31;5241817;28;20041;-75
2023/01/15 01:14:21;;;;;;;10.63;2.33;;;;;;;5.19;100.00;99757.84;5242105;28;20025;-74
2023/01/15 01:16:52;;;;;;;10.43;2.97;;;;;;;5.19;100.00;99779.34;5241032;28;20034;-74
2023/01/15 01:19:25;;;;;;;10.30;3.53;;;;;;;5.23;100.00;99775.03;5242097;28;20053;-74
2023/01/15 01:21:56;;;;;;;11.05;3.97;;;;;;;5.24;100.00;99767.25;5241673;28;20535;-74
2023/01/15 01:24:28;;;;;;;11.57;3.13;;;;;;;5.22;100.00;99771.59;5224182;28;20033;-74
2023/01/15 01:26:59;;;;;;;10.63;2.70;;;;;;;5.22;100.00;99779.34;5241647;28;20064;-74
2023/01/15 01:29:31;;;;;;;10.60;2.77;;;;;;;5.25;100.00;99783.66;5240708;28;20033;-74
2023/01/15 01:32:02;;;;;;;13.10;2.93;;;;;;;5.20;100.00;99772.47;5241778;28;20044;-74
2023/01/15 01:34:34;;;;;;;10.97;3.17;;;;;;;5.23;100.00;99769.84;5224094;28;20487;-75
2023/01/15 01:37:05;;;;;;;12.73;3.13;;;;;;;5.27;100.00;99780.16;5241763;28;20064;-74
2023/01/15 01:39:36;;;;;;;21.53;2.97;;;;;;;5.24;100.00;99774.16;5242097;28;20037;-74
2023/01/15 01:42:12;;;;;;;15.47;3.50;;;;;;;5.28;100.00;99776.72;5242064;28;20479;-72
2023/01/15 01:44:44;;;;;;;10.30;3.15;;;;;;;5.30;100.00;99782.72;5241883;28;20041;-72
2023/01/15 01:47:22;;;;;;;13.90;2.67;;;;;;;5.24;100.00;99780.19;5241387;28;20094;-72
2023/01/15 01:49:58;;;;;;;10.75;2.63;;;;;;;5.23;100.00;99791.41;5241562;28;20026;-73
2023/01/15 01:52:36;;;;;;;17.02;2.83;;;;;;;5.32;100.00;99782.72;5241288;28;20084;-73
2023/01/15 01:55:10;;;;;;;11.90;2.67;;;;;;;5.31;100.00;99768.06;5241758;28;20037;-74
2023/01/15 01:57:43;;;;;;;7.35;3.20;;;;;;;5.22;100.00;99773.31;5239951;28;20037;-73
2023/01/15 02:00:15;;;;;;;11.65;2.67;;;;;;;5.25;100.00;99779.31;5241177;28;20450;-73
2023/01/15 02:02:49;;;;;;;13.63;3.53;;;;;;;5.18;100.00;99780.22;5242207;28;20038;-73
2023/01/15 02:05:32;;;;;;;12.85;3.55;;;;;;;5.20;100.00;99777.63;5239846;28;20103;-73
2023/01/15 02:08:05;;;;;;;11.82;2.78;;;;;;;5.19;100.00;99770.75;5241656;28;20116;-73
2023/01/15 02:10:36;;;;;;;13.20;3.70;;;;;;;5.22;100.00;99784.50;5241452;28;20040;-73
2023/01/15 02:13:31;;;;;;;11.00;2.60;;;;;;;5.21;100.00;99789.69;5241384;28;20033;-73
2023/01/15 02:16:17;;;;;;;9.95;2.83;;;;;;;5.22;100.00;99788.84;5241987;28;20462;-73
2023/01/15 02:19:03;;;;;;;12.73;2.50;;;;;;;5.22;100.00;99791.41;5240862;28;20143;-73
2023/01/15 02:21:55;;;;;;;10.77;3.03;;;;;;;5.19;100.00;99789.69;5245808;28;20029;-73
2023/01/15 02:24:26;;;;;;;8.18;2.47;;;;;;;5.20;100.00;99780.22;5244414;28;20339;-73
2023/01/15 02:27:19;;;;;;;13.97;3.07;;;;;;;5.23;100.00;99777.59;5244798;28;20033;-73
2023/01/15 02:30:07;;;;;;;8.02;2.85;;;;;;;5.24;100.00;99766.41;5244506;28;20029;-74
2023/01/15 02:32:48;;;;;;;14.93;3.00;;;;;;;5.19;100.00;99763.00;5244153;28;20108;-74
2023/01/15 02:35:29;;;;;;;8.23;2.40;;;;;;;5.20;100.00;99757.84;5245467;28;20372;-74
2023/01/15 02:38:05;;;;;;;20.70;3.50;;;;;;;5.18;100.00;99758.69;5245015;28;20458;-74
2023/01/15 02:40:40;;;;;;;9.18;2.55;;;;;;;5.15;100.00;99753.56;5245599;28;20029;-74
2023/01/15 02:43:14;;;;;;;9.63;2.50;;;;;;;5.23;100.00;99760.41;5245221;28;20096;-74
2023/01/15 02:45:50;;;;;;;7.50;2.05;;;;;;;5.22;100.00;99766.41;5243637;28;20560;-74
2023/01/15 02:48:27;;;;;;;11.85;2.85;;;;;;;5.31;99.30;99752.56;5244542;28;20029;-74
2023/01/15 02:51:13;;;;;;;9.75;2.80;;;;;;;5.23;100.00;99736.25;5243838;28;20132;-73
2023/01/15 02:53:48;;;;;;;8.98;3.30;;;;;;;5.18;100.00;99751.78;5243516;28;20044;-74
2023/01/15 02:56:25;;;;;;;13.75;2.63;;;;;;;5.18;100.00;99754.38;5244786;28;20465;-74
2023/01/15 02:59:01;;;;;;;11.75;2.80;;;;;;;5.20;100.00;99749.19;5245004;28;20040;-75
2023/01/15 03:02:04;;;;;;;12.60;2.95;;;;;;;5.27;98.82;99745.72;5243416;28;20186;-74
2023/01/15 03:04:39;;;;;;;15.88;3.47;;;;;;;5.22;99.09;99752.66;5241606;28;20090;-74
2023/01/15 03:07:17;;;;;;;13.32;2.60;;;;;;;5.26;98.14;99756.91;5244355;28;20034;-74
2023/01/15 03:09:49;;;;;;;9.75;3.13;;;;;;;5.19;99.54;99753.53;5243540;28;20441;-73
2023/01/15 03:13:02;;;;;;;14.03;3.40;;;;;;;5.27;98.04;99756.91;5242875;28;20087;-73
2023/01/15 03:18:59;;;;;;;9.63;3.13;;;;;;;5.18;99.68;99761.28;5244019;28;20365;-73
2023/01/15 03:21:42;;;;;;;10.88;2.40;;;;;;;5.17;99.02;99775.06;5242927;28;20069;-73
2023/01/15 03:24:20;;;;;;;11.65;2.70;;;;;;;5.22;97.52;99753.50;5244749;28;20040;-73
2023/01/15 03:26:52;;;;;;;10.63;2.78;;;;;;;5.17;98.93;99754.41;5244088;28;20037;-73
2023/01/15 03:29:28;;;;;;;10.07;2.72;;;;;;;5.21;98.69;99756.09;5243953;28;20037;-73
2023/01/15 03:32:00;;;;;;;11.13;2.67;;;;;;;5.20;97.67;99750.09;5241182;28;20056;-73
2023/01/15 03:34:59;;;;;;;12.27;3.10;;;;;;;5.11;99.73;99744.97;5244409;28;20544;-73
2023/01/15 03:37:31;;;;;;;15.18;4.13;;;;;;;5.18;96.79;99743.19;5243396;28;20060;-74
2023/01/15 03:40:03;;;;;;;13.37;2.67;;;;;;;5.19;97.14;99748.34;5243852;28;20034;-73
2023/01/15 03:43:39;;;;;;;12.57;3.22;;;;;;;5.23;96.35;99752.66;5242565;28;20704;-73
2023/01/15 03:45:42;;;;;;;8.90;3.05;;;;;;;5.22;97.53;99763.00;5243306;28;20037;-73
2023/01/15 03:48:42;;;;;;;10.55;2.58;;;;;;;5.25;95.61;99768.13;5243473;28;20064;-73
2023/01/15 03:51:22;;;;;;;8.57;2.42;;;;;;;5.26;96.22;99755.22;5243625;28;20030;-73
2023/01/15 03:53:56;;;;;;;16.63;4.00;;;;;;;5.23;97.44;99756.94;5242907;28;20069;-73
2023/01/15 03:56:54;;;;;;;13.82;3.22;;;;;;;5.22;95.84;99755.25;5243511;28;20036;-73
2023/01/15 03:59:34;;;;;;;17.20;2.72;;;;;;;5.27;95.29;99763.81;5243760;28;20184;-73
2023/01/15 04:02:10;;;;;;;19.90;2.85;;;;;;;5.24;96.30;99748.31;5244060;28;20036;-73
2023/01/15 04:04:42;;;;;;;15.07;3.10;;;;;;;5.24;95.87;99762.09;5242886;28;20029;-73
2023/01/15 04:07:14;;;;;;;;;;;;;;;5.25;95.99;99758.66;5243146;28;20120;-73
2023/01/15 04:09:46;;;;;;;11.18;3.78;;;;;;;5.28;94.54;99748.28;5243486;28;20285;-73
2023/01/15 04:12:17;;;;;;;11.43;3.40;;;;;;;5.32;93.78;99749.13;5243180;28;20175;-74
2023/01/15 04:14:48;;;;;;;13.63;3.80;;;;;;;5.38;92.76;99763.75;5225482;28;20033;-73
2023/01/15 04:17:20;;;;;;;12.77;2.70;;;;;;;5.37;92.62;99751.66;5243989;28;20037;-73
2023/01/15 04:19:51;;;;;;;11.83;3.03;;;;;;;5.31;93.48;99757.72;5243518;28;20100;-73
2023/01/15 04:22:22;;;;;;;13.67;3.70;;;;;;;5.22;93.94;99743.16;5243069;28;20087;-73
2023/01/15 04:24:54;;;;;;;11.30;3.03;;;;;;;5.18;94.84;99745.78;5241842;28;20037;-73
2023/01/15 04:27:26;;;;;;;10.07;2.70;;;;;;;5.17;95.06;99755.28;5242129;28;20029;-73
2023/01/15 04:29:57;;;;;;;14.57;3.10;;;;;;;5.13;94.18;99732.91;5243502;28;20112;-74
2023/01/15 04:32:29;;;;;;;13.47;3.53;;;;;;;5.11;94.17;99747.56;5241643;28;20303;-75
2023/01/15 04:35:00;;;;;;;9.03;2.80;;;;;;;5.07;95.54;99743.28;5242657;28;20473;-75
2023/01/15 04:37:32;;;;;;;16.33;3.10;;;;;;;5.04;95.46;99751.91;5242965;28;20112;-74
2023/01/15 04:40:05;;;;;;;14.15;3.25;;;;;;;5.04;95.84;99745.88;5243020;28;20025;-75
2023/01/15 04:45:26;;;;;;;14.35;2.88;;;;;;;4.97;97.46;99760.56;5243239;28;20136;-74
2023/01/15 04:47:57;;;;;;;11.07;3.13;;;;;;;5.05;96.06;99774.28;5242656;28;20433;-75
2023/01/15 04:50:28;;;;;;;13.43;3.03;;;;;;;5.11;95.70;99763.91;5241350;28;20038;-75
2023/01/15 04:53:00;;;;;;;12.30;2.57;;;;;;;5.10;96.54;99772.53;5242704;28;20060;-75
2023/01/15 04:55:31;;;;;;;17.03;4.50;;;;;;;5.08;96.18;99773.41;5242996;28;20076;-75
2023/01/15 04:58:02;;;;;;;19.53;2.97;;;;;;;5.03;97.19;99768.28;5241412;28;20026;-74
2023/01/15 05:00:34;;;;;;;9.80;2.50;;;;;;;5.05;96.27;99771.69;5242456;28;20095;-74
2023/01/15 05:03:05;;;;;;;14.17;2.90;;;;;;;5.03;96.25;99783.75;5241698;28;20133;-74
2023/01/15 05:05:37;;;;;;;14.23;3.23;;;;;;;5.11;95.32;99768.22;5242077;28;20037;-74
2023/01/15 05:08:08;;;;;;;13.33;3.20;;;;;;;5.03;96.24;99760.53;5241022;28;20034;-74
2023/01/15 05:10:40;;;;;;;6.77;2.40;;;;;;;5.04;96.35;99779.44;5242424;28;20129;-74
2023/01/15 05:13:11;;;;;;;15.40;2.77;;;;;;;5.04;96.36;99775.16;5242448;28;20026;-73
2023/01/15 05:15:47;;;;;;;18.77;4.37;;;;;;;4.96;97.62;99761.44;5242667;28;20092;-75
2023/01/15 05:18:18;;;;;;;9.30;2.47;;;;;;;4.99;97.45;99776.03;5240667;28;20029;-75
2023/01/15 05:20:50;;;;;;;10.70;3.40;;;;;;;5.03;96.58;99765.69;5241184;28;20084;-75
2023/01/15 05:23:21;;;;;;;8.47;2.40;;;;;;;5.04;96.53;99770.00;5242000;28;20116;-75
2023/01/15 05:25:52;;;;;;;14.57;3.40;;;;;;;5.09;95.50;99759.63;5242195;28;20022;-75
2023/01/15 05:28:24;;;;;;;14.97;3.83;;;;;;;5.05;96.01;99753.59;5240641;28;20113;-73
2023/01/15 05:30:55;;;;;;;11.17;3.57;;;;;;;5.08;95.70;99757.91;5241861;28;20408;-72
2023/01/15 05:33:27;;;;;;;19.93;4.00;;;;;;;5.06;95.65;99762.25;5241891;28;20068;-75
2023/01/15 05:36:11;;;;;;;17.77;2.87;;;;;;;5.10;94.54;99756.16;5241809;28;20033;-72
2023/01/15 05:38:42;;;;;;;9.50;2.92;;;;;;;5.07;95.38;99754.47;5241227;28;20124;-72
2023/01/15 05:44:09;;;;;;;11.65;2.97;;;;;;;5.07;95.88;99761.34;5242048;28;20037;-74
2023/01/15 05:46:44;;;;;;;18.73;5.00;;;;;;;5.00;96.64;99746.78;5241406;28;20061;-74
2023/01/15 05:49:19;;;;;;;12.88;3.58;;;;;;;4.99;96.71;99752.81;5242156;28;20047;-74
2023/01/15 05:51:54;;;;;;;11.43;3.25;;;;;;;4.99;96.82;99751.09;5241738;28;20341;-74
2023/01/15 05:54:29;;;;;;;17.42;3.65;;;;;;;4.94;98.18;99747.66;5241418;28;20419;-74
2023/01/15 05:57:01;;;;;;;15.05;3.08;;;;;;;4.99;97.10;99745.06;5245178;28;20041;-74
2023/01/15 05:59:32;;;;;;;14.13;3.33;;;;;;;4.99;97.69;99745.94;5245204;28;20041;-74
2023/01/15 06:02:04;;;;;;;18.67;4.13;;;;;;;4.97;98.79;99737.31;5246387;28;20036;-73
2023/01/15 06:04:35;;;;;;;13.77;2.77;;;;;;;5.02;98.12;99735.56;5244511;28;20057;-74
2023/01/15 06:07:07;;;;;;;16.30;3.20;;;;;;;5.10;98.23;99744.13;5245280;28;20036;-73
2023/01/15 06:09:38;;;;;;;16.87;3.90;;;;;;;5.04;98.75;99740.72;5245448;28;20112;-73
2023/01/15 06:12:09;;;;;;;12.80;3.93;;;;;;;5.07;98.96;99748.44;5245169;28;20069;-74
2023/01/15 06:14:41;;;;;;;13.37;3.50;;;;;;;5.08;99.20;99757.91;5244502;28;20033;-74
2023/01/15 06:17:13;;;;;;;15.30;3.40;;;;;;;5.11;98.63;99753.56;5244226;28;20038;-74
2023/01/15 06:19:45;;;;;;;;;;;;;;;5.09;98.65;99769.97;5245904;28;20396;-74
2023/01/15 06:22:17;;;;;;;17.83;4.70;;;;;;;5.02;99.13;99769.13;5245446;28;19913;-73
2023/01/15 06:24:48;;;;;;;12.63;3.47;;;;;;;5.04;98.26;99772.56;5244251;28;20120;-74
2023/01/15 06:27:19;;;;;;;13.57;3.53;;;;;;;5.01;98.30;99769.16;5227486;28;20120;-73
2023/01/15 06:29:52;;;;;;;17.93;4.27;;;;;;;4.96;98.47;99766.59;5245313;28;20128;-74
2023/01/15 06:32:24;;;;;;;;;;;;;;;5.00;97.96;99768.28;5228642;28;20511;-75
2023/01/15 06:34:56;;;;;;;6.78;2.65;;;;;;;4.92;98.38;99780.38;5244160;28;19917;-74
2023/01/15 06:37:27;;;;;;;10.57;2.33;;;;;;;4.91;98.24;99778.66;5245137;28;20088;-74
2023/01/15 06:39:58;;;;;;;10.90;2.47;;;;;;;4.87;97.71;99779.56;5245174;28;20029;-74
2023/01/15 06:48:09;;;;;;;14.13;3.30;;;;;;;4.71;98.48;99768.47;5244360;28;20041;-74
2023/01/15 06:50:41;;;;;;;10.67;3.23;;;;;;;4.66;97.41;99763.31;5244961;28;20374;-73
2023/01/15 06:53:12;;;;;;;11.60;3.23;;;;;;;4.65;96.83;99769.34;5244657;28;20029;-73
2023/01/15 06:55:44;;;;;;;8.83;3.00;;;;;;;4.71;96.11;99763.28;5245032;28;20117;-73
2023/01/15 06:58:15;;;;;;;13.13;2.83;;;;;;;4.62;97.77;99776.25;5244138;28;20033;-73
2023/01/15 07:00:53;;;;;;;14.67;3.63;;;;;;;4.57;97.96;99786.59;5245183;28;20120;-73
2023/01/15 07:03:25;;;;;;;13.90;3.53;;;;;;;4.55;98.15;99780.59;5244872;28;20168;-73
2023/01/15 07:05:57;;;;;;;14.45;2.70;;;;;;;4.56;98.34;99782.31;5244465;28;20479;-73
2023/01/15 07:08:28;;;;;;;13.97;3.17;;;;;;;4.48;99.23;99766.00;5245373;28;20369;-73
2023/01/15 07:11:04;;;;;;;15.27;3.77;;;;;;;4.49;99.15;99785.75;5244199;28;20084;-73
2023/01/15 07:13:36;;;;;;;10.55;2.38;;;;;;;4.52;98.21;99781.47;5244616;28;20052;-73
2023/01/15 07:16:25;;;;;;;12.23;4.30;;;;;;;4.51;98.59;99786.63;5244126;28;20029;-73
2023/01/15 07:18:57;;;;;;;11.43;2.90;;;;;;;4.47;99.05;99792.66;5244228;28;20053;-73
2023/01/15 07:21:28;;;;;;;14.37;2.93;;;;;;;4.48;98.44;99796.97;5244367;28;20040;-73
2023/01/15 07:24:00;;;;;;;9.43;2.50;;;;;;;4.53;97.95;99788.31;5242957;28;20489;-74
2023/01/15 07:26:32;;;;;;;10.33;2.40;;;;;;;4.57;98.19;99802.06;5244192;28;20087;-73
2023/01/15 07:29:04;;;;;;;11.18;3.17;;;;;;;4.67;95.92;99801.19;5244419;28;20276;-74
2023/01/15 07:31:36;;;;;;;10.07;2.47;;;;;;;4.71;96.19;99822.69;5242743;28;20057;-74
2023/01/15 07:34:08;;;;;;;12.13;3.37;;;;;;;4.68;96.46;99814.94;5244115;28;20097;-74
2023/01/15 07:36:39;;;;;;;11.17;3.13;;;;;;;4.66;96.09;99796.03;5243672;28;20124;-74
2023/01/15 07:39:11;;;;;;;9.67;2.47;;;;;;;4.72;93.66;99812.34;5242583;28;20116;-73
2023/01/15 07:50:18;;;;;;;9.85;2.17;;;;;;;4.84;91.70;99823.47;5243809;28;20473;-73
2023/01/15 07:52:50;;;;;;;8.73;2.28;;;;;;;4.83;91.66;99821.75;5243675;28;20026;-73
2023/01/15 07:55:22;;;;;;;9.43;2.50;;;;;;;4.83;91.19;99832.09;5243423;28;20044;-73
2023/01/15 07:57:54;;;;;;;8.40;2.40;;;;;;;4.84;91.61;99826.06;5244073;28;20029;-73
2023/01/15 08:00:25;;;;;;;10.70;2.97;;;;;;;4.84;91.33;99844.13;5243156;28;20044;-73
2023/01/15 08:02:58;;;;;;;8.03;2.20;;;;;;;4.73;91.94;99837.31;5243695;28;20037;-74
2023/01/15 08:05:29;;;;;;;;;;;;;;;4.71;91.75;99836.44;5243829;28;20037;-74
2023/01/15 08:08:01;;;;;;;12.35;3.42;;;;;;;4.70;89.74;99836.44;5241955;28;20344;-73
2023/01/15 08:15:11;;;;;;;9.57;3.17;;;;;;;4.61;90.34;99842.50;5243078;28;20452;-72
2023/01/15 08:16:14;;;;;;;7.10;2.08;;;;;;;4.54;90.60;99835.63;5243189;28;20033;-73
2023/01/15 08:18:45;;;;;;;12.90;3.00;;;;;;;4.46;91.31;99833.09;5242210;28;20050;-73
2023/01/15 08:21:16;;;;;;;6.30;2.20;;;;;;;4.40;91.47;99843.44;5242706;28;20091;-73
2023/01/15 08:23:49;;;;;;;8.47;2.27;;;;;;;4.33;91.18;99847.75;5242999;28;20420;-73
2023/01/15 08:26:21;;;;;;;10.70;2.20;;;;;;;4.24;92.47;99852.94;5243067;28;20052;-76
2023/01/15 08:28:52;;;;;;;9.10;2.40;;;;;;;4.27;91.91;99837.44;5242941;28;20059;-72
2023/01/15 08:31:23;;;;;;;14.17;2.33;;;;;;;4.27;92.38;99846.91;5242604;28;20108;-75
2023/01/15 08:33:55;;;;;;;6.57;2.17;;;;;;;4.31;91.59;99833.97;5242294;28;20029;-72
2023/01/15 08:36:26;;;;;;;11.73;2.27;;;;;;;4.33;92.08;99842.59;5243067;28;20029;-73
2023/01/15 08:38:58;;;;;;;7.33;2.17;;;;;;;4.38;91.30;99850.34;5242371;28;20124;-73
2023/01/15 08:41:30;;;;;;;10.73;2.50;;;;;;;4.38;92.20;99852.91;5241176;28;20033;-72
2023/01/15 08:44:01;;;;;;;9.25;2.15;;;;;;;4.41;91.63;99847.72;5242356;28;20025;-72
2023/01/15 08:46:32;;;;;;;10.83;2.93;;;;;;;4.44;91.55;99844.28;5242335;28;20492;-72
2023/01/15 08:49:04;;;;;;;16.40;2.40;;;;;;;4.52;91.60;99827.03;5242214;28;20449;-72
2023/01/15 08:51:35;;;;;;;6.93;2.10;;;;;;;4.57;91.41;99841.66;5241509;28;20037;-74
2023/01/15 08:54:06;;;;;;;15.03;2.37;;;;;;;4.66;90.70;99856.25;5240706;28;20109;-74
2023/01/15 08:56:38;;;;;;;9.63;2.67;;;;;;;4.69;91.25;99845.91;5242272;28;20116;-72
2023/01/15 08:59:09;;;;;;;8.73;2.33;;;;;;;4.74;89.98;99820.94;5242068;28;20044;-73
2023/01/15 09:01:41;;;;;;;9.07;2.00;;;;;;;4.84;90.03;99828.63;5242126;28;20036;-72
2023/01/15 09:04:15;;;;;;;6.30;2.67;;;;;;;4.92;89.91;99838.06;5241695;28;20029;-73
2023/01/15 09:06:48;;;;;;;11.90;2.65;;;;;;;4.98;89.70;99823.41;5241387;28;20033;-73
2023/01/15 09:09:19;;;;;;;6.53;1.98;;;;;;;5.01;89.32;99828.56;5242135;28;20049;-73
2023/01/15 09:11:50;;;;;;;12.57;2.57;;;;;;;5.09;89.25;99809.56;5241569;28;20472;-72
2023/01/15 09:14:22;;;;;;;8.83;2.40;;;;;;;5.13;88.76;99814.72;5241409;28;20037;-72
2023/01/15 09:16:53;;;;;;;9.63;3.00;;;;;;;5.28;88.80;99835.28;5241586;28;20079;-73
2023/01/15 09:19:25;;;;;;;11.50;3.00;;;;;;;5.32;87.93;99821.47;5241426;28;20046;-73
2023/01/15 09:21:56;;;;;;;11.83;2.80;;;;;;;5.47;87.58;99829.13;5241720;28;20465;-72
2023/01/15 09:24:27;;;;;;;5.03;2.80;;;;;;;5.51;86.67;99832.56;5241115;28;20044;-72
2023/01/15 09:26:59;;;;;;;9.40;2.60;;;;;;;5.64;86.01;99846.25;5241679;28;20572;-72
2023/01/15 09:29:30;;;;;;;13.23;3.20;;;;;;;5.72;85.81;99834.09;5240911;28;20030;-73
2023/01/15 09:32:02;;;;;;;12.90;3.77;;;;;;;5.94;86.52;99813.22;5241014;28;20440;-73
2023/01/15 09:34:33;;;;;;;11.67;2.97;;;;;;;6.04;84.64;99833.00;5241480;28;20431;-74
2023/01/15 09:37:04;;;;;;;9.23;2.40;;;;;;;6.13;84.19;99837.22;5240908;28;20064;-73
2023/01/15 09:39:37;;;;;;;7.67;2.23;;;;;;;6.22;82.66;99828.53;5241389;28;20048;-76
2023/01/15 09:42:17;;;;;;;10.48;3.28;;;;;;;6.22;82.41;99831.97;5241271;28;20362;-73
2023/01/15 09:45:04;;;;;;;10.25;2.83;;;;;;;5.99;82.26;99819.25;5241452;28;20079;-74
2023/01/15 09:47:41;;;;;;;10.27;2.55;;;;;;;5.90;82.62;99833.09;5241772;28;20452;-74
2023/01/15 09:50:39;;;;;;;13.23;3.08;;;;;;;5.94;83.97;99844.25;5241899;28;20032;-76
2023/01/15 09:53:29;;;;;;;10.57;2.08;;;;;;;5.90;83.65;99840.84;5241192;28;20377;-75
2023/01/15 09:56:02;;;;;;;11.63;2.72;;;;;;;5.89;82.85;99843.44;5241219;28;20025;-75
2023/01/15 09:58:39;;;;;;;;;;;;;;;6.15;82.93;99843.22;5241820;28;20034;-74
2023/01/15 10:01:17;;;;;;;11.98;2.33;;;;;;;6.15;81.40;99845.81;5241490;28;20237;-74
2023/01/15 10:03:58;;;;;;;9.57;2.53;;;;;;;6.29;80.29;99843.94;5240831;28;20037;-72
2023/01/15 10:06:39;;;;;;;11.90;2.50;;;;;;;6.39;78.55;99852.47;5239706;28;20029;-72
2023/01/15 10:09:16;;;;;;;9.45;2.22;;;;;;;6.23;79.80;99859.56;5241144;28;20064;-72
2023/01/15 10:14:51;;;;;;;11.18;3.50;;;;;;;6.29;80.31;99866.38;5241366;28;20037;-71
2023/01/15 10:17:28;;;;;;;14.07;3.10;;;;;;;6.13;78.89;99889.81;5241217;28;20465;-75
2023/01/15 10:20:00;;;;;;;7.97;2.50;;;;;;;6.01;80.15;99898.56;5240651;28;20443;-74
2023/01/15 10:22:47;;;;;;;10.93;2.53;;;;;;;6.22;80.14;99857.00;5240682;28;20038;-73
2023/01/15 10:25:26;;;;;;;11.18;3.10;;;;;;;6.51;79.13;99869.63;5240657;28;20026;-73
2023/01/15 10:28:07;;;;;;;10.15;3.60;;;;;;;6.55;78.11;99877.34;5240781;28;20055;-73
2023/01/15 10:30:49;;;;;;;10.60;3.05;;;;;;;6.44;78.54;99862.78;5241247;28;20183;-74
2023/01/15 10:33:35;;;;;;;7.03;2.97;;;;;;;6.50;78.25;99868.75;5241212;28;20026;-74
2023/01/15 10:36:31;;;;;;;10.23;2.47;;;;;;;6.34;79.85;99864.59;5241151;28;20033;-73
2023/01/15 10:39:29;;;;;;;12.48;2.97;;;;;;;6.46;78.90;99866.22;5240774;28;20041;-73
2023/01/15 10:42:19;;;;;;;10.40;2.97;;;;;;;6.91;78.33;99864.81;5244666;28;20108;-75
2023/01/15 10:45:05;;;;;;;13.40;3.17;;;;;;;7.04;77.17;99856.91;5244614;28;20029;-74
2023/01/15 10:47:38;;;;;;;5.90;2.40;;;;;;;6.81;76.35;99850.28;5244496;28;20025;-74
2023/01/15 10:50:17;;;;;;;10.30;2.58;;;;;;;7.27;75.49;99846.22;5243084;28;20117;-74
2023/01/15 10:53:14;;;;;;;7.47;2.53;;;;;;;7.63;73.63;99860.38;5244482;28;20036;-73
2023/01/15 10:55:55;;;;;;;7.70;2.83;;;;;;;7.54;74.42;99857.91;5244742;28;20037;-74
2023/01/15 10:58:49;;;;;;;8.65;2.45;;;;;;;7.30;74.61;99844.41;5244424;28;20076;-73
2023/01/15 11:01:24;;;;;;;8.00;2.90;;;;;;;7.55;72.29;99846.66;5244340;28;20061;-73
2023/01/15 11:03:56;;;;;;;8.02;2.92;;;;;;;7.12;73.38;99844.69;5244531;28;20029;-74
2023/01/15 11:06:31;;;;;;;7.43;2.07;;;;;;;7.12;74.38;99873.22;5244122;28;20029;-74
2023/01/15 11:09:04;;;;;;;8.73;1.83;;;;;;;7.22;74.39;99851.47;5244020;28;20343;-73
2023/01/15 11:20:45;;;;;;;9.40;2.35;;;;;;;7.25;74.07;99868.72;5244437;28;20392;-73
2023/01/15 11:23:20;;;;;;;7.82;2.00;;;;;;;7.58;73.06;99848.34;5243754;28;20393;-73
2023/01/15 11:25:55;;;;;;;8.15;2.00;;;;;;;7.70;72.93;99883.63;5243038;28;20030;-73
2023/01/15 11:28:38;;;;;;;4.07;1.70;;;;;;;7.50;72.51;99892.53;5242431;28;20030;-73
2023/01/15 11:31:11;;;;;;;4.72;1.80;;;;;;;7.39;72.77;99856.41;5243903;28;20437;-73
2023/01/15 11:33:44;;;;;;;;;;;;;;;7.74;72.74;99872.31;5244086;28;20029;-73
2023/01/15 11:36:22;;;;;;;8.38;3.17;;;;;;;7.74;71.71;99855.00;5244192;28;20008;-73
2023/01/15 11:38:54;;;;;;;5.60;2.15;;;;;;;7.71;72.49;99842.09;5243498;28;20040;-73
2023/01/15 11:50:42;;;;;;;2.97;1.47;;;;;;;7.40;73.38;99868.47;5243377;28;20029;-74
2023/01/15 11:53:19;;;;;;;7.38;2.30;;;;;;;6.84;75.94;99867.50;5242723;28;20045;-73
2023/01/15 11:55:58;;;;;;;4.55;1.98;;;;;;;7.05;74.97;99877.63;5244128;28;20039;-74
2023/01/15 11:58:49;;;;;;;7.97;2.15;;;;;;;7.02;75.72;99845.69;5243528;28;20030;-72
2023/01/15 12:01:29;;;;;;;9.45;2.75;;;;;;;6.72;75.84;99873.69;5243463;28;20113;-73
2023/01/15 12:04:06;;;;;;;7.18;1.85;;;;;;;6.80;75.89;99864.09;5242772;28;20037;-73
2023/01/15 12:06:39;;;;;;;3.80;1.95;;;;;;;6.81;75.70;99857.19;5242901;28;20022;-73
2023/01/15 12:09:23;;;;;;;5.20;1.60;;;;;;;6.61;76.43;99871.22;5243368;28;20116;-73
2023/01/15 12:12:15;;;;;;;3.22;1.40;;;;;;;6.56;76.88;99862.66;5242899;28;20491;-74
2023/01/15 12:15:11;;;;;;;9.05;2.03;;;;;;;6.52;77.81;99861.84;5243126;28;20029;-74
2023/01/15 12:17:56;;;;;;;12.30;2.78;;;;;;;6.51;77.42;99854.94;5242720;28;20100;-74
2023/01/15 12:20:51;;;;;;;5.05;1.40;;;;;;;6.54;77.43;99860.09;5242796;28;20511;-73
2023/01/15 12:23:58;;;;;;;7.35;2.20;;;;;;;6.55;77.36;99860.94;5242684;28;20056;-72
2023/01/15 12:26:37;;;;;;;7.90;1.98;;;;;;;6.39;78.67;99842.13;5243019;28;20021;-73
2023/01/15 12:29:23;;;;;;;11.63;1.90;;;;;;;6.44;79.34;99839.47;5242444;28;20025;-73
2023/01/15 12:32:01;;;;;;;5.25;2.20;;;;;;;6.47;77.75;99854.97;5242783;28;20476;-73
2023/01/15 12:34:50;;;;;;;4.43;1.50;;;;;;;6.42;77.29;99849.84;5242323;28;20033;-73
2023/01/15 12:37:35;;;;;;;5.80;1.95;;;;;;;6.35;78.94;99855.97;5242808;28;20076;-72
2023/01/15 12:40:13;;;;;;;4.40;2.10;;;;;;;6.42;77.92;99817.94;5241616;28;20034;-73
2023/01/15 12:45:42;;;;;;;4.25;2.10;;;;;;;6.85;76.45;99849.34;5242996;28;20033;-74
2023/01/15 12:48:26;;;;;;;7.05;2.20;;;;;;;6.73;76.88;99857.28;5242399;28;20033;-73
2023/01/15 12:51:01;;;;;;;8.10;2.10;;;;;;;6.46;77.95;99853.28;5242524;28;20033;-74
2023/01/15 12:53:41;;;;;;;6.80;2.08;;;;;;;6.56;78.34;99862.66;5241957;28;20488;-73
2023/01/15 12:56:53;;;;;;;4.53;2.20;;;;;;;6.46;79.37;99846.38;5241945;28;20100;-72
2023/01/15 12:59:43;;;;;;;6.10;2.20;;;;;;;6.47;79.21;99862.75;5242015;28;20041;-74
2023/01/15 13:02:47;;;;;;;5.50;1.60;;;;;;;6.53;79.76;99840.22;5242146;28;20447;-73
2023/01/15 13:05:21;;;;;;;;;;;;;;;6.67;78.90;99849.59;5242153;28;20099;-72
2023/01/15 13:08:00;;;;;;;5.53;1.60;;;;;;;6.73;77.75;99834.84;5241868;28;19909;-73
2023/01/15 13:10:35;;;;;;;7.13;1.95;;;;;;;6.74;77.62;99835.69;5241710;28;20469;-72